Time;durP1;ratioP1;P1;durP2;ratioP2;P2;SDS_P1;SDS_P2;PMS_P1;PMS_P2;Temp;Humidity;BMP_temperature;BMP_pressure;BME280_temperature;BME280_humidity;BME280_pressure;Samples;Min_cycle;Max_cycle;Signal;HPM_P1;HPM_P2
2021/11/27 00:02:52;;;;;;;;;;;;;;;9.74;100.00;93387.47;10430301;28;19917;-75
2021/11/27 00:07:54;;;;;;;;;;;;;;;10.05;100.00;93384.91;10430342;28;19921;-82
2021/11/27 00:12:54;;;;;;;;;;;;;;;10.32;98.96;93393.16;10427621;28;19927;-82
2021/11/27 00:17:55;;;;;;;;;;;;;;;10.70;92.07;93392.81;10427619;28;19912;-74
2021/11/27 00:22:56;;;;;;;;;;;;;;;10.86;89.16;93380.59;10426674;28;19920;-81
2021/11/27 00:27:56;;;;;;;;;;;;;;;10.93;89.28;93391.69;10429569;28;20019;-82
2021/11/27 00:32:56;;;;;;;;;;;;;;;11.14;82.07;93403.84;10430926;28;19916;-81
2021/11/27 00:37:58;;;;;;;;;;;;;;;11.21;83.04;93399.59;10448741;28;19939;-76
2021/11/27 00:42:59;;;;;;;;;;;;;;;11.18;84.62;93419.03;10455600;28;19916;-83
2021/11/27 00:47:59;;;;;;;;;;;;;;;11.04;85.84;93378.78;10451796;28;19913;-70
2021/11/27 00:53:02;;;;;;;;;;;;;;;11.11;83.54;93381.81;10446639;28;19919;-72
2021/11/27 00:58:03;;;;;;;;;;;;;;;11.18;83.14;93394.81;10443646;28;19935;-76
2021/11/27 01:03:05;;;;;;;;;;;;;;;11.20;83.90;93400.69;10445780;28;19921;-74
2021/11/27 01:08:07;;;;;;;;;;;;;;;11.18;85.69;93392.13;10417558;28;19978;-75
2021/11/27 01:13:08;;;;;;;;;;;;;;;11.10;85.59;93404.44;10429386;28;19932;-79
2021/11/27 01:18:09;;;;;;;;;;;;;;;11.13;87.13;93421.06;10430315;28;19916;-79
2021/11/27 01:23:10;;;;;;;;;;;;;;;11.09;90.16;93424.38;10427256;28;19917;-75
2021/11/27 01:28:11;;;;;;;;;;;;;;;11.04;92.37;93396.81;10424573;28;19916;-79
2021/11/27 01:33:12;;;;;;;;;;;;;;;11.05;93.18;93398.38;10428881;28;19913;-77
2021/11/27 01:38:12;;;;;;;;;;;;;;;10.90;94.08;93380.78;10427522;28;20283;-77
2021/11/27 01:43:13;;;;;;;;;;;;;;;10.85;95.35;93375.53;10428045;28;19920;-76
2021/11/27 01:48:15;;;;;;;;;;;;;;;10.82;96.02;93368.09;10453656;28;20283;-75
2021/11/27 01:53:17;;;;;;;;;;;;;;;10.81;94.51;93369.19;10435325;28;19924;-80
2021/11/27 01:58:17;;;;;;;;;;;;;;;10.76;95.24;93378.19;10435373;28;20322;-75
2021/11/27 02:03:18;;;;;;;;;;;;;;;10.75;96.45;93380.06;10410878;28;19924;-80
2021/11/27 02:08:18;;;;;;;;;;;;;;;10.70;96.84;93372.13;10410708;28;19921;-79
2021/11/27 02:13:18;;;;;;;;;;;;;;;10.74;95.90;93362.38;10410358;28;20390;-79
2021/11/27 02:18:19;;;;;;;;;;;;;;;10.76;95.94;93364.75;10408450;28;20318;-73
2021/11/27 02:23:19;;;;;;;;;;;;;;;10.76;96.56;93367.44;10414380;28;19917;-81
2021/11/27 02:28:21;;;;;;;;;;;;;;;10.79;96.97;93366.81;10410080;28;20035;-78
2021/11/27 02:33:21;;;;;;;;;;;;;;;10.80;97.71;93375.66;10407434;28;19979;-74
2021/11/27 02:38:22;;;;;;;;;;;;;;;10.59;98.29;93365.41;10393489;28;20020;-79
2021/11/27 02:43:22;;;;;;;;;;;;;;;10.36;100.00;93367.31;10411631;28;19924;-76
2021/11/27 02:48:23;;;;;;;;;;;;;;;10.32;99.61;93334.09;10409133;28;19932;-77
2021/11/27 02:53:24;;;;;;;;;;;;;;;10.12;100.00;93317.38;10414791;28;20373;-77
2021/11/27 02:58:25;;;;;;;;;;;;;;;10.31;100.00;93332.50;10395209;28;19913;-80
2021/11/27 03:03:25;;;;;;;;;;;;;;;10.35;100.00;93322.75;10412769;28;19921;-73
2021/11/27 03:08:26;;;;;;;;;;;;;;;10.52;98.16;93325.56;10413445;28;19929;-74
2021/11/27 03:13:32;;;;;;;;;;;;;;;10.49;98.95;93355.72;10411300;28;19928;-79
2021/11/27 03:18:33;;;;;;;;;;;;;;;10.36;100.00;93330.50;10406493;28;19913;-81
2021/11/27 03:23:34;;;;;;;;;;;;;;;10.46;99.63;93345.59;10406296;28;19971;-81
2021/11/27 03:28:34;;;;;;;;;;;;;;;10.54;98.96;93344.84;10410056;28;19957;-80
2021/11/27 03:33:34;;;;;;;;;;;;;;;10.32;99.74;93380.53;10408154;28;19917;-75
2021/11/27 03:38:35;;;;;;;;;;;;;;;10.25;100.00;93391.69;10408127;28;19913;-78
2021/11/27 03:43:37;;;;;;;;;;;;;;;10.26;100.00;93365.66;10405876;28;19917;-80
2021/11/27 03:48:40;;;;;;;;;;;;;;;10.01;100.00;93394.66;10404051;28;20314;-75
2021/11/27 03:53:41;;;;;;;;;;;;;;;10.04;100.00;93382.53;10389526;28;20004;-76
2021/11/27 03:58:41;;;;;;;;;;;;;;;10.08;100.00;93386.97;10405790;28;20471;-76
2021/11/27 04:03:43;;;;;;;;;;;;;;;9.98;100.00;93410.59;10388687;28;19924;-75
2021/11/27 04:08:43;;;;;;;;;;;;;;;10.00;100.00;93413.75;10405496;28;20007;-82
2021/11/27 04:13:44;;;;;;;;;;;;;;;10.09;100.00;93411.94;10405160;28;19917;-78
2021/11/27 04:18:44;;;;;;;;;;;;;;;10.12;100.00;93418.56;10389376;28;19920;-82
2021/11/27 04:23:45;;;;;;;;;;;;;;;10.16;100.00;93430.31;10405663;28;20398;-81
2021/11/27 04:28:46;;;;;;;;;;;;;;;10.31;100.00;93418.44;10406198;28;19913;-83
2021/11/27 04:33:47;;;;;;;;;;;;;;;10.36;100.00;93403.03;10404531;28;19920;-77
2021/11/27 04:38:47;;;;;;;;;;;;;;;10.34;100.00;93404.38;10388620;28;19940;-76
2021/11/27 04:43:48;;;;;;;;;;;;;;;10.45;100.00;93399.59;10386083;28;19917;-76
2021/11/27 04:48:48;;;;;;;;;;;;;;;10.59;98.41;93392.28;10403691;28;19913;-82
2021/11/27 04:53:48;;;;;;;;;;;;;;;10.60;98.19;93372.38;10403150;28;20000;-73
2021/11/27 04:58:49;;;;;;;;;;;;;;;10.64;97.15;93413.66;10402325;28;20449;-81
2021/11/27 05:03:49;;;;;;;;;;;;;;;10.69;97.70;93404.66;10404826;28;19921;-76
2021/11/27 05:08:49;;;;;;;;;;;;;;;10.64;98.00;93402.13;10386211;28;20435;-79
2021/11/27 05:13:49;;;;;;;;;;;;;;;10.55;97.13;93408.22;10425513;28;19920;-78
2021/11/27 05:18:50;;;;;;;;;;;;;;;10.70;96.61;93412.44;10447781;28;19917;-77
2021/11/27 05:23:50;;;;;;;;;;;;;;;10.71;96.76;93414.00;10471194;28;19928;-80
2021/11/27 05:28:51;;;;;;;;;;;;;;;10.75;97.10;93441.84;10476419;28;19912;-80
2021/11/27 05:39:05;;;;;;;;;;;;;;;10.75;98.24;93459.88;10440882;28;19952;-77
2021/11/27 05:44:05;;;;;;;;;;;;;;;10.74;97.94;93469.03;10419694;28;19999;-74
2021/11/27 05:49:05;;;;;;;;;;;;;;;10.74;98.73;93477.91;10434980;28;19913;-81
2021/11/27 05:54:06;;;;;;;;;;;;;;;10.80;98.02;93477.78;10426776;28;19913;-79
2021/11/27 05:59:08;;;;;;;;;;;;;;;10.94;94.35;93486.59;10412591;28;20605;-80
2021/11/27 06:04:08;;;;;;;;;;;;;;;10.96;96.06;93502.41;10451086;28;19916;-76
2021/11/27 06:09:09;;;;;;;;;;;;;;;11.05;97.49;93508.63;10432424;28;20374;-80
2021/11/27 06:14:09;;;;;;;;;;;;;;;11.16;92.96;93503.78;10408411;28;19921;-75
2021/11/27 06:19:09;;;;;;;;;;;;;;;11.26;92.37;93527.72;10391162;28;19935;-78
2021/11/27 06:24:10;;;;;;;;;;;;;;;11.34;92.32;93527.00;10391472;28;19917;-75
2021/11/27 06:29:10;;;;;;;;;;;;;;;11.41;89.87;93516.63;10404591;28;20357;-76
2021/11/27 06:34:10;;;;;;;;;;;;;;;11.55;86.94;93534.56;10427983;28;20065;-74
2021/11/27 06:39:11;;;;;;;;;;;;;;;11.58;89.72;93532.06;10429915;28;19920;-78
2021/11/27 06:44:11;;;;;;;;;;;;;;;11.69;86.80;93548.72;10406506;28;19917;-75
2021/11/27 06:49:12;;;;;;;;;;;;;;;11.77;84.85;93582.94;10428635;28;19959;-75
2021/11/27 06:54:12;;;;;;;;;;;;;;;11.71;86.23;93586.09;10447599;28;19917;-80
2021/11/27 06:59:13;;;;;;;;;;;;;;;11.79;82.63;93594.22;10429583;28;19920;-76
2021/11/27 07:04:13;;;;;;;;;;;;;;;12.00;84.05;93596.41;10427868;28;20354;-75
2021/11/27 07:09:14;;;;;;;;;;;;;;;12.12;83.84;93599.31;10446154;28;20385;-78
2021/11/27 07:14:15;;;;;;;;;;;;;;;12.26;81.22;93618.06;10427299;28;20011;-80
2021/11/27 07:19:15;;;;;;;;;;;;;;;12.47;79.32;93617.50;10429137;28;19916;-79
2021/11/27 07:24:15;;;;;;;;;;;;;;;12.71;75.88;93624.38;10448521;28;20306;-80
2021/11/27 07:29:22;;;;;;;;;;;;;;;13.05;75.35;93628.25;10410216;28;19935;-81
2021/11/27 07:34:22;;;;;;;;;;;;;;;13.29;71.30;93631.28;10442706;28;20456;-77
2021/11/27 07:39:32;;;;;;;;;;;;;;;13.22;72.38;93630.19;10413151;28;19971;-84
2021/11/27 07:44:32;;;;;;;;;;;;;;;13.40;69.79;93639.09;10391782;28;19925;-83
2021/11/27 07:49:33;;;;;;;;;;;;;;;13.62;69.82;93632.75;10429311;28;19912;-84
2021/11/27 07:54:34;;;;;;;;;;;;;;;13.80;69.67;93642.41;10446290;28;19913;-79
2021/11/27 07:59:35;;;;;;;;;;;;;;;13.91;70.80;93645.56;10426707;28;20501;-77
2021/11/27 08:04:36;;;;;;;;;;;;;;;13.80;66.06;93642.41;10407600;28;19928;-76
2021/11/27 08:09:36;;;;;;;;;;;;;;;13.77;67.13;93634.94;10403259;28;19925;-81
2021/11/27 08:14:37;;;;;;;;;;;;;;;13.69;65.40;93641.16;10399373;28;19938;-80
2021/11/27 08:19:37;;;;;;;;;;;;;;;13.69;65.50;93649.25;10444718;28;20015;-81
2021/11/27 08:24:37;;;;;;;;;;;;;;;13.64;64.46;93646.72;10412305;28;20029;-81
2021/11/27 08:29:38;;;;;;;;;;;;;;;13.50;66.06;93644.94;10401885;28;20371;-76
2021/11/27 08:34:38;;;;;;;;;;;;;;;13.40;65.93;93637.19;10383568;28;19917;-79
2021/11/27 08:39:38;;;;;;;;;;;;;;;13.39;66.55;93646.38;10401988;28;19920;-79
2021/11/27 08:44:39;;;;;;;;;;;;;;;13.41;66.97;93636.09;10400412;28;20005;-78
2021/11/27 08:49:40;;;;;;;;;;;;;;;13.30;67.17;93622.06;10401847;28;19920;-75
2021/11/27 08:54:40;;;;;;;;;;;;;;;13.24;67.59;93641.44;10384149;28;20378;-82
2021/11/27 08:59:41;;;;;;;;;;;;;;;13.22;68.89;93640.97;10401715;28;19914;-75
2021/11/27 09:04:42;;;;;;;;;;;;;;;13.08;66.01;93617.63;10399630;28;19921;-75
2021/11/27 09:09:45;;;;;;;;;;;;;;;13.14;66.36;93621.78;10401669;28;20525;-75
2021/11/27 09:14:46;;;;;;;;;;;;;;;13.06;64.02;93608.25;10383605;28;19917;-80
2021/11/27 09:19:46;;;;;;;;;;;;;;;12.98;65.57;93617.94;10401009;28;20307;-81
2021/11/27 09:24:46;;;;;;;;;;;;;;;12.96;67.06;93623.66;10383235;28;19921;-75
2021/11/27 09:29:47;;;;;;;;;;;;;;;12.95;65.41;93597.78;10383524;28;19921;-75
2021/11/27 09:34:47;;;;;;;;;;;;;;;13.04;65.58;93624.75;10383056;28;19913;-77
2021/11/27 09:39:47;;;;;;;;;;;;;;;13.13;63.98;93630.97;10395606;28;19914;-78
2021/11/27 09:44:49;;;;;;;;;;;;;;;13.23;64.25;93620.94;10399164;28;19925;-80
2021/11/27 09:49:49;;;;;;;;;;;;;;;13.31;63.91;93603.97;10400899;28;19913;-76
2021/11/27 09:54:50;;;;;;;;;;;;;;;13.39;63.56;93614.00;10382074;28;20311;-76
2021/11/27 09:59:50;;;;;;;;;;;;;;;13.67;61.73;93592.06;10398780;28;19913;-76
2021/11/27 10:04:55;;;;;;;;;;;;;;;13.83;61.66;93608.56;10384668;28;19928;-76
2021/11/27 10:09:56;;;;;;;;;;;;;;;14.23;61.08;93581.25;10391076;28;19955;-80
2021/11/27 10:14:56;;;;;;;;;;;;;;;14.32;57.97;93575.81;10404363;28;19917;-75
2021/11/27 10:20:00;;;;;;;;;;;;;;;14.51;57.02;93589.72;10417084;28;19917;-78
2021/11/27 10:25:00;;;;;;;;;;;;;;;14.73;55.21;93587.09;10429160;28;19924;-75
2021/11/27 10:30:07;;;;;;;;;;;;;;;15.59;53.17;93587.56;10434393;28;19916;-78
2021/11/27 10:35:09;;;;;;;;;;;;;;;18.66;45.63;93575.66;10430656;28;20041;-75
2021/11/27 10:40:10;;;;;;;;;;;;;;;18.55;44.08;93569.97;10430140;28;20785;-79
2021/11/27 10:45:18;;;;;;;;;;;;;;;17.77;44.75;93564.84;10400143;28;19917;-76
2021/11/27 10:50:20;;;;;;;;;;;;;;;16.60;46.86;93558.38;10388875;28;19917;-76
2021/11/27 10:55:25;;;;;;;;;;;;;;;16.04;47.58;93553.50;10388312;28;19913;-79
2021/11/27 11:00:48;;;;;;;;;;;;;;;15.46;49.38;93537.97;10406418;28;19913;-75
2021/11/27 11:05:49;;;;;;;;;;;;;;;15.21;50.06;93524.34;10408412;28;19922;-79
2021/11/27 11:10:49;;;;;;;;;;;;;;;15.11;51.00;93527.47;10375146;28;20315;-79
2021/11/27 11:15:49;;;;;;;;;;;;;;;15.10;50.75;93516.94;10379765;28;20449;-75
2021/11/27 11:20:49;;;;;;;;;;;;;;;15.29;53.28;93508.34;10380949;28;19918;-79
2021/11/27 11:25:58;;;;;;;;;;;;;;;15.45;49.58;93484.94;10365403;28;19917;-74
2021/11/27 11:31:01;;;;;;;;;;;;;;;15.36;49.86;93484.22;10388492;28;19914;-79
2021/11/27 11:36:04;;;;;;;;;;;;;;;15.61;49.80;93460.72;10380742;28;20007;-75
2021/11/27 11:41:04;;;;;;;;;;;;;;;15.78;47.89;93442.69;10408992;28;19913;-73
2021/11/27 11:46:05;;;;;;;;;;;;;;;16.13;45.50;93447.69;10409896;28;19917;-79
2021/11/27 11:51:12;;;;;;;;;;;;;;;16.44;44.96;93470.69;10411487;28;19913;-83
2021/11/27 11:56:16;;;;;;;;;;;;;;;16.59;45.21;93491.72;10414621;28;20379;-74
2021/11/27 12:01:18;;;;;;;;;;;;;;;16.57;45.67;93489.31;10386755;28;20004;-75
2021/11/27 12:06:27;;;;;;;;;;;;;;;16.79;46.36;93479.13;10390707;28;20067;-76
2021/11/27 12:12:06;;;;;;;;;;;;;;;17.16;46.61;93484.44;10401611;28;20450;-78
2021/11/27 12:17:18;;;;;;;;;;;;;;;17.06;47.22;93495.78;10340981;28;19969;-79
2021/11/27 12:22:30;;;;;;;;;;;;;;;17.15;45.69;93473.91;10393861;28;19921;-79
2021/11/27 12:27:32;;;;;;;;;;;;;;;17.02;45.54;93468.56;10403451;28;19987;-79
2021/11/27 12:32:42;;;;;;;;;;;;;;;16.39;45.30;93460.88;10402664;28;20438;-72
2021/11/27 12:37:49;;;;;;;;;;;;;;;15.43;45.80;93468.22;10402524;28;20371;-75
2021/11/27 12:42:49;;;;;;;;;;;;;;;15.42;48.12;93474.78;10401186;28;19922;-77
2021/11/27 12:47:50;;;;;;;;;;;;;;;15.16;48.07;93481.25;10401633;28;19913;-76
2021/11/27 12:52:51;;;;;;;;;;;;;;;15.47;48.69;93479.97;10401764;28;19917;-73
2021/11/27 12:57:51;;;;;;;;;;;;;;;15.52;47.41;93468.94;10384372;28;19919;-79
2021/11/27 13:02:54;;;;;;;;;;;;;;;15.85;47.76;93462.72;10376512;28;20401;-79
2021/11/27 13:07:55;;;;;;;;;;;;;;;15.96;46.98;93467.66;10371078;28;19979;-76
2021/11/27 13:13:00;;;;;;;;;;;;;;;15.79;47.35;93477.59;10401116;28;20020;-79
2021/11/27 13:18:06;;;;;;;;;;;;;;;15.96;47.74;93475.78;10402579;28;20036;-76
2021/11/27 13:23:07;;;;;;;;;;;;;;;15.32;48.30;93465.19;10401642;28;20014;-79
2021/11/27 13:28:27;;;;;;;;;;;;;;;14.99;49.58;93460.53;10400734;28;19925;-78
2021/11/27 13:33:53;;;;;;;;;;;;;;;14.82;50.08;93461.50;10384212;28;20418;-73
2021/11/27 13:38:54;;;;;;;;;;;;;;;14.78;49.60;93478.72;10413840;28;19944;-76
2021/11/27 13:43:55;;;;;;;;;;;;;;;14.70;50.99;93488.47;10432590;28;19974;-80
2021/11/27 13:49:03;;;;;;;;;;;;;;;14.68;51.91;93505.03;10449769;28;19913;-76
2021/11/27 13:54:03;;;;;;;;;;;;;;;14.61;52.27;93514.75;10430297;28;20754;-80
2021/11/27 13:59:03;;;;;;;;;;;;;;;14.67;51.50;93508.06;10432424;28;19970;-80
2021/11/27 14:04:13;;;;;;;;;;;;;;;14.63;51.89;93505.22;10425587;28;20241;-77
2021/11/27 14:09:13;;;;;;;;;;;;;;;14.67;51.95;93505.38;10397252;28;19928;-76
2021/11/27 14:14:13;;;;;;;;;;;;;;;14.67;51.37;93521.59;10447761;28;19917;-78
2021/11/27 14:19:22;;;;;;;;;;;;;;;14.41;51.61;93510.91;10432224;28;19912;-80
2021/11/27 14:24:25;;;;;;;;;;;;;;;14.59;52.20;93522.41;10432549;28;19917;-75
2021/11/27 14:29:26;;;;;;;;;;;;;;;14.44;52.13;93515.66;10448947;28;20466;-74
2021/11/27 14:34:33;;;;;;;;;;;;;;;14.37;52.73;93521.56;10413355;28;20011;-78
2021/11/27 14:39:34;;;;;;;;;;;;;;;14.14;54.04;93526.47;10448377;28;19970;-77
2021/11/27 14:44:38;;;;;;;;;;;;;;;14.21;54.45;93531.38;10404835;28;19921;-76
2021/11/27 14:49:39;;;;;;;;;;;;;;;13.98;55.02;93531.59;10404150;28;19913;-75
2021/11/27 14:54:47;;;;;;;;;;;;;;;13.89;55.59;93514.66;10437160;28;20417;-76
2021/11/27 15:00:01;;;;;;;;;;;;;;;13.64;55.99;93525.22;10440701;28;19939;-76
2021/11/27 15:05:02;;;;;;;;;;;;;;;13.66;54.59;93533.78;10438615;28;20370;-74
2021/11/27 15:10:06;;;;;;;;;;;;;;;13.65;55.50;93535.69;10439738;28;19971;-74
2021/11/27 15:15:08;;;;;;;;;;;;;;;13.52;56.80;93530.47;10436726;28;19924;-78
2021/11/27 15:20:11;;;;;;;;;;;;;;;13.53;55.42;93519.38;10432568;28;19923;-78
2021/11/27 15:25:13;;;;;;;;;;;;;;;13.63;54.11;93512.81;10431190;28;19982;-77
2021/11/27 15:30:15;;;;;;;;;;;;;;;13.71;52.91;93506.59;10428369;28;20353;-81
2021/11/27 15:35:17;;;;;;;;;;;;;;;13.71;52.90;93498.50;10426948;28;19916;-74
2021/11/27 15:40:17;;;;;;;;;;;;;;;13.74;52.27;93478.16;10427302;28;19940;-80
2021/11/27 15:45:18;;;;;;;;;;;;;;;13.76;51.48;93484.03;10425978;28;19925;-76
2021/11/27 15:50:18;;;;;;;;;;;;;;;13.75;51.38;93494.03;10429310;28;20445;-77
2021/11/27 15:55:18;;;;;;;;;;;;;;;13.89;50.36;93480.34;10427066;28;20314;-77
2021/11/27 16:00:19;;;;;;;;;;;;;;;13.85;50.51;93509.88;10446592;28;19920;-77
2021/11/27 16:05:19;;;;;;;;;;;;;;;13.75;50.97;93517.56;10403359;28;20506;-77
2021/11/27 16:10:19;;;;;;;;;;;;;;;13.82;50.62;93517.84;10429830;28;19974;-77
2021/11/27 16:15:20;;;;;;;;;;;;;;;13.75;51.74;93521.06;10429198;28;19970;-77
2021/11/27 16:20:20;;;;;;;;;;;;;;;13.62;51.03;93525.53;10425969;28;19913;-78
2021/11/27 16:25:25;;;;;;;;;;;;;;;13.66;51.06;93533.78;10427338;28;19917;-79
2021/11/27 16:30:26;;;;;;;;;;;;;;;13.59;51.27;93511.88;10429497;28;20007;-77
2021/11/27 16:35:27;;;;;;;;;;;;;;;13.56;50.74;93505.22;10429899;28;19996;-76
2021/11/27 16:40:28;;;;;;;;;;;;;;;13.47;50.73;93488.28;10444409;28;19923;-77
2021/11/27 16:45:30;;;;;;;;;;;;;;;13.44;50.60;93516.69;10408158;28;20306;-77
2021/11/27 16:50:30;;;;;;;;;;;;;;;13.42;49.95;93513.50;10411366;28;19913;-76
2021/11/27 16:55:30;;;;;;;;;;;;;;;13.49;47.46;93511.13;10402154;28;19921;-76
2021/11/27 17:00:31;;;;;;;;;;;;;;;13.54;49.43;93515.56;10384433;28;19913;-77
2021/11/27 17:05:36;;;;;;;;;;;;;;;13.25;53.00;93535.09;10430024;28;19983;-77
2021/11/27 17:10:37;;;;;;;;;;;;;;;12.86;57.10;93528.78;10425067;28;19931;-76
2021/11/27 17:15:39;;;;;;;;;;;;;;;12.86;59.75;93508.00;10430373;28;20421;-80
2021/11/27 17:20:39;;;;;;;;;;;;;;;12.57;60.56;93522.09;10432727;28;19967;-77
2021/11/27 17:25:39;;;;;;;;;;;;;;;12.36;63.93;93528.06;10451436;28;19975;-78
2021/11/27 17:30:40;;;;;;;;;;;;;;;12.11;67.40;93522.31;10435431;28;19924;-76
2021/11/27 17:35:40;;;;;;;;;;;;;;;11.95;68.49;93513.06;10412217;28;20438;-76
2021/11/27 17:40:40;;;;;;;;;;;;;;;11.96;66.25;93514.66;10450147;28;19913;-76
2021/11/27 17:45:41;;;;;;;;;;;;;;;11.93;66.69;93524.13;10433297;28;19917;-74
2021/11/27 17:50:42;;;;;;;;;;;;;;;11.85;68.83;93519.50;10432764;28;19939;-75
2021/11/27 17:55:42;;;;;;;;;;;;;;;11.74;70.82;93523.56;10433054;28;19962;-81
2021/11/27 18:00:44;;;;;;;;;;;;;;;11.68;72.36;93519.41;10407494;28;19913;-76
2021/11/27 18:05:44;;;;;;;;;;;;;;;11.60;74.14;93516.38;10392228;28;19921;-77
2021/11/27 18:10:45;;;;;;;;;;;;;;;11.49;76.67;93517.75;10391361;28;19925;-77
2021/11/27 18:15:45;;;;;;;;;;;;;;;11.46;80.42;93529.13;10409381;28;19917;-78
2021/11/27 18:20:58;;;;;;;;;;;;;;;11.32;84.01;93536.50;10391609;28;20663;-79
2021/11/27 18:31:00;;;;;;;;;;;;;;;11.03;91.58;93545.78;10409388;28;20313;-76
2021/11/27 18:36:04;;;;;;;;;;;;;;;11.00;93.95;93527.59;10396317;28;19913;-79
2021/11/27 18:41:04;;;;;;;;;;;;;;;10.97;95.29;93533.53;10432541;28;19920;-80
2021/11/27 18:46:04;;;;;;;;;;;;;;;10.96;95.69;93538.13;10419212;28;19921;-77
2021/11/27 18:51:05;;;;;;;;;;;;;;;10.91;96.21;93535.56;10407949;28;19913;-75
2021/11/27 18:56:06;;;;;;;;;;;;;;;10.71;98.16;93548.38;10407029;28;19913;-80
2021/11/27 19:01:07;;;;;;;;;;;;;;;10.60;99.61;93536.25;10388709;28;19913;-77
2021/11/27 19:06:08;;;;;;;;;;;;;;;10.61;100.00;93540.53;10390103;28;20418;-81
2021/11/27 19:11:12;;;;;;;;;;;;;;;10.34;100.00;93541.34;10409282;28;19952;-79
2021/11/27 19:16:13;;;;;;;;;;;;;;;10.17;100.00;93542.78;10422898;28;19917;-74
2021/11/27 19:21:14;;;;;;;;;;;;;;;10.15;100.00;93536.13;10456333;28;19913;-72
2021/11/27 19:26:14;;;;;;;;;;;;;;;10.14;100.00;93542.56;10430440;28;19943;-75
2021/11/27 19:31:15;;;;;;;;;;;;;;;10.20;100.00;93538.69;10433254;28;19913;-75
2021/11/27 19:36:17;;;;;;;;;;;;;;;10.11;100.00;93521.69;10452341;28;19913;-81
2021/11/27 19:41:18;;;;;;;;;;;;;;;10.00;100.00;93511.16;10413952;28;19921;-76
2021/11/27 19:46:18;;;;;;;;;;;;;;;10.08;100.00;93520.41;10429632;28;20426;-74
2021/11/27 19:51:18;;;;;;;;;;;;;;;9.84;100.00;93526.78;10426989;28;19912;-77
2021/11/27 19:56:19;;;;;;;;;;;;;;;9.91;100.00;93532.53;10411158;28;20342;-77
2021/11/27 20:01:22;;;;;;;;;;;;;;;9.79;100.00;93540.28;10428753;28;20294;-77
2021/11/27 20:06:23;;;;;;;;;;;;;;;9.71;100.00;93554.38;10446868;28;19925;-77
2021/11/27 20:11:24;;;;;;;;;;;;;;;9.55;100.00;93529.75;10428440;28;19932;-72
2021/11/27 20:16:25;;;;;;;;;;;;;;;9.48;100.00;93519.41;10401846;28;20058;-79
2021/11/27 20:21:27;;;;;;;;;;;;;;;9.21;100.00;93531.66;10389796;28;19919;-79
2021/11/27 20:26:29;;;;;;;;;;;;;;;9.27;100.00;93545.00;10392208;28;19936;-78
2021/11/27 20:31:31;;;;;;;;;;;;;;;9.27;100.00;93528.91;10388115;28;19921;-76
2021/11/27 20:36:32;;;;;;;;;;;;;;;9.29;100.00;93532.84;10419102;28;20383;-77
2021/11/27 20:41:34;;;;;;;;;;;;;;;9.29;100.00;93530.16;10432926;28;20198;-80
2021/11/27 20:46:35;;;;;;;;;;;;;;;9.27;100.00;93537.72;10453189;28;19931;-75
2021/11/27 20:51:36;;;;;;;;;;;;;;;9.22;100.00;93543.16;10453823;28;19917;-74
2021/11/27 20:56:39;;;;;;;;;;;;;;;9.19;100.00;93528.47;10402118;28;20380;-75
2021/11/27 21:01:41;;;;;;;;;;;;;;;9.27;100.00;93537.72;10390764;28;19913;-84
2021/11/27 21:06:42;;;;;;;;;;;;;;;9.30;100.00;93534.44;10420873;28;20449;-79
2021/11/27 21:11:43;;;;;;;;;;;;;;;9.11;100.00;93539.06;10418776;28;19925;-77
2021/11/27 21:16:44;;;;;;;;;;;;;;;9.07;100.00;93528.16;10446563;28;19917;-76
2021/11/27 21:21:45;;;;;;;;;;;;;;;9.03;100.00;93530.59;10412649;28;19939;-72
2021/11/27 21:26:45;;;;;;;;;;;;;;;8.93;100.00;93549.53;10434291;28;19913;-76
2021/11/27 21:31:46;;;;;;;;;;;;;;;8.58;100.00;93551.63;10416180;28;19917;-78
2021/11/27 21:36:46;;;;;;;;;;;;;;;8.26;100.00;93555.00;10404290;28;20454;-79
2021/11/27 21:41:46;;;;;;;;;;;;;;;8.20;100.00;93568.47;10400791;28;19920;-79
2021/11/27 21:46:47;;;;;;;;;;;;;;;8.39;100.00;93554.28;10400266;28;20376;-81
2021/11/27 21:51:47;;;;;;;;;;;;;;;8.59;100.00;93544.41;10401763;28;19986;-77
2021/11/27 21:56:48;;;;;;;;;;;;;;;8.28;100.00;93542.91;10408091;28;19924;-78
2021/11/27 22:01:52;;;;;;;;;;;;;;;8.45;100.00;93536.31;10389684;28;20490;-75
2021/11/27 22:06:54;;;;;;;;;;;;;;;8.32;100.00;93537.78;10392337;28;20506;-74
2021/11/27 22:11:55;;;;;;;;;;;;;;;8.37;100.00;93537.72;10431312;28;19920;-81
2021/11/27 22:16:56;;;;;;;;;;;;;;;8.27;100.00;93541.31;10450577;28;19948;-77
2021/11/27 22:21:57;;;;;;;;;;;;;;;8.41;100.00;93535.25;10433511;28;20592;-72
2021/11/27 22:26:57;;;;;;;;;;;;;;;8.54;100.00;93511.25;10434615;28;19924;-76
2021/11/27 22:31:58;;;;;;;;;;;;;;;8.75;100.00;93499.44;10426567;28;19952;-76
2021/11/27 22:36:59;;;;;;;;;;;;;;;8.80;100.00;93520.78;10453936;28;19925;-73
2021/11/27 22:42:00;;;;;;;;;;;;;;;8.81;100.00;93504.44;10445097;28;19919;-77
2021/11/27 22:47:00;;;;;;;;;;;;;;;8.71;100.00;93501.91;10449716;28;19921;-74
2021/11/27 22:52:03;;;;;;;;;;;;;;;8.88;100.00;93453.16;10442062;28;20334;-80
2021/11/27 22:57:03;;;;;;;;;;;;;;;8.74;100.00;93484.47;10431776;28;20302;-76
2021/11/27 23:02:04;;;;;;;;;;;;;;;8.92;100.00;93482.81;10451699;28;19919;-76
2021/11/27 23:07:05;;;;;;;;;;;;;;;9.00;100.00;93471.44;10472703;28;19924;-77
2021/11/27 23:12:05;;;;;;;;;;;;;;;9.09;100.00;93469.69;10490674;28;19920;-80
2021/11/27 23:17:06;;;;;;;;;;;;;;;9.08;100.00;93476.13;10472793;28;20393;-76
2021/11/27 23:22:06;;;;;;;;;;;;;;;9.05;100.00;93474.81;10425788;28;20450;-74
2021/11/27 23:27:06;;;;;;;;;;;;;;;8.99;100.00;93473.31;10388153;28;20008;-80
2021/11/27 23:32:07;;;;;;;;;;;;;;;8.79;100.00;93466.44;10389541;28;19913;-79
2021/11/27 23:37:11;;;;;;;;;;;;;;;8.83;100.00;93488.06;10404066;28;19935;-72
2021/11/27 23:42:12;;;;;;;;;;;;;;;8.86;100.00;93488.28;10428143;28;19912;-76
2021/11/27 23:47:12;;;;;;;;;;;;;;;8.86;100.00;93466.03;10428019;28;19917;-76
2021/11/27 23:52:12;;;;;;;;;;;;;;;8.63;100.00;93455.16;10427032;28;20346;-79
2021/11/27 23:57:20;;;;;;;;;;;;;;;8.58;100.00;93443.72;10417520;28;20309;-77
